sensor_id;sensor_type;location;lat;lon;timestamp;P1;durP1;ratioP1;P2;durP2;ratioP2
68942;SDS011;60852;52.190;4.422;2022-07-06T00:01:05;1.02;;;0.87;;
68942;SDS011;60852;52.190;4.422;2022-07-06T00:03:31;1.03;;;0.88;;
68942;SDS011;60852;52.190;4.422;2022-07-06T00:05:56;1.08;;;0.91;;
68942;SDS011;60852;52.190;4.422;2022-07-06T00:08:22;1.32;;;1.11;;
68942;SDS011;60852;52.190;4.422;2022-07-06T00:10:47;0.97;;;0.82;;
68942;SDS011;60852;52.190;4.422;2022-07-06T00:13:13;0.97;;;0.82;;
68942;SDS011;60852;52.190;4.422;2022-07-06T00:15:38;1.10;;;0.93;;
68942;SDS011;60852;52.190;4.422;2022-07-06T00:18:03;1.24;;;1.04;;
68942;SDS011;60852;52.190;4.422;2022-07-06T00:20:29;1.08;;;0.90;;
68942;SDS011;60852;52.190;4.422;2022-07-06T00:22:54;0.91;;;0.77;;
68942;SDS011;60852;52.190;4.422;2022-07-06T00:25:20;1.07;;;0.90;;
68942;SDS011;60852;52.190;4.422;2022-07-06T00:27:45;0.96;;;0.82;;
68942;SDS011;60852;52.190;4.422;2022-07-06T00:30:11;0.97;;;0.82;;
68942;SDS011;60852;52.190;4.422;2022-07-06T00:32:36;1.14;;;0.95;;
68942;SDS011;60852;52.190;4.422;2022-07-06T00:35:02;0.99;;;0.83;;
68942;SDS011;60852;52.190;4.422;2022-07-06T00:37:27;1.03;;;0.89;;
68942;SDS011;60852;52.190;4.422;2022-07-06T00:39:53;1.08;;;0.94;;
68942;SDS011;60852;52.190;4.422;2022-07-06T00:42:18;0.84;;;0.73;;
68942;SDS011;60852;52.190;4.422;2022-07-06T00:44:44;0.94;;;0.81;;
68942;SDS011;60852;52.190;4.422;2022-07-06T00:47:09;0.93;;;0.80;;
68942;SDS011;60852;52.190;4.422;2022-07-06T00:49:35;1.07;;;0.93;;
68942;SDS011;60852;52.190;4.422;2022-07-06T00:52:19;0.99;;;0.87;;
68942;SDS011;60852;52.190;4.422;2022-07-06T00:54:44;1.08;;;0.93;;
68942;SDS011;60852;52.190;4.422;2022-07-06T00:57:11;1.11;;;0.95;;
68942;SDS011;60852;52.190;4.422;2022-07-06T00:59:37;1.15;;;0.97;;
68942;SDS011;60852;52.190;4.422;2022-07-06T01:02:03;0.99;;;0.85;;
68942;SDS011;60852;52.190;4.422;2022-07-06T01:04:28;1.06;;;0.91;;
68942;SDS011;60852;52.190;4.422;2022-07-06T01:06:54;1.01;;;0.87;;
68942;SDS011;60852;52.190;4.422;2022-07-06T01:09:22;0.94;;;0.82;;
68942;SDS011;60852;52.190;4.422;2022-07-06T01:11:47;0.81;;;0.71;;
68942;SDS011;60852;52.190;4.422;2022-07-06T01:14:14;0.87;;;0.75;;
68942;SDS011;60852;52.190;4.422;2022-07-06T01:16:40;0.84;;;0.73;;
68942;SDS011;60852;52.190;4.422;2022-07-06T01:19:06;0.86;;;0.74;;
68942;SDS011;60852;52.190;4.422;2022-07-06T01:21:31;0.87;;;0.75;;
68942;SDS011;60852;52.190;4.422;2022-07-06T01:23:56;1.05;;;0.90;;
68942;SDS011;60852;52.190;4.422;2022-07-06T01:26:22;1.06;;;0.90;;
68942;SDS011;60852;52.190;4.422;2022-07-06T01:28:51;0.88;;;0.76;;
68942;SDS011;60852;52.190;4.422;2022-07-06T01:31:18;1.05;;;0.91;;
68942;SDS011;60852;52.190;4.422;2022-07-06T01:33:45;0.96;;;0.82;;
68942;SDS011;60852;52.190;4.422;2022-07-06T01:36:13;1.06;;;0.90;;
68942;SDS011;60852;52.190;4.422;2022-07-06T01:38:51;1.05;;;0.89;;
68942;SDS011;60852;52.190;4.422;2022-07-06T01:41:23;1.08;;;0.91;;
68942;SDS011;60852;52.190;4.422;2022-07-06T01:43:50;0.91;;;0.78;;
68942;SDS011;60852;52.190;4.422;2022-07-06T01:46:15;0.96;;;0.82;;
68942;SDS011;60852;52.190;4.422;2022-07-06T01:48:41;0.86;;;0.74;;
68942;SDS011;60852;52.190;4.422;2022-07-06T01:51:07;0.98;;;0.84;;
68942;SDS011;60852;52.190;4.422;2022-07-06T01:53:34;0.71;;;0.61;;
68942;SDS011;60852;52.190;4.422;2022-07-06T01:55:59;0.97;;;0.84;;
68942;SDS011;60852;52.190;4.422;2022-07-06T01:58:25;0.85;;;0.75;;
68942;SDS011;60852;52.190;4.422;2022-07-06T02:00:50;0.82;;;0.73;;
68942;SDS011;60852;52.190;4.422;2022-07-06T02:03:16;0.95;;;0.85;;
68942;SDS011;60852;52.190;4.422;2022-07-06T02:05:41;0.88;;;0.78;;
68942;SDS011;60852;52.190;4.422;2022-07-06T02:08:06;0.99;;;0.87;;
68942;SDS011;60852;52.190;4.422;2022-07-06T02:10:32;1.16;;;1.02;;
68942;SDS011;60852;52.190;4.422;2022-07-06T02:12:57;0.92;;;0.81;;
68942;SDS011;60852;52.190;4.422;2022-07-06T02:15:23;0.98;;;0.87;;
68942;SDS011;60852;52.190;4.422;2022-07-06T02:17:48;0.87;;;0.78;;
68942;SDS011;60852;52.190;4.422;2022-07-06T02:20:14;0.83;;;0.74;;
68942;SDS011;60852;52.190;4.422;2022-07-06T02:22:39;0.92;;;0.83;;
68942;SDS011;60852;52.190;4.422;2022-07-06T02:25:05;0.71;;;0.65;;
68942;SDS011;60852;52.190;4.422;2022-07-06T02:27:30;0.87;;;0.80;;
68942;SDS011;60852;52.190;4.422;2022-07-06T02:29:56;0.83;;;0.77;;
68942;SDS011;60852;52.190;4.422;2022-07-06T02:32:22;0.74;;;0.68;;
68942;SDS011;60852;52.190;4.422;2022-07-06T02:34:47;0.81;;;0.74;;
68942;SDS011;60852;52.190;4.422;2022-07-06T02:37:13;0.98;;;0.89;;
68942;SDS011;60852;52.190;4.422;2022-07-06T02:39:38;0.91;;;0.81;;
68942;SDS011;60852;52.190;4.422;2022-07-06T02:42:03;0.92;;;0.82;;
68942;SDS011;60852;52.190;4.422;2022-07-06T02:44:29;0.96;;;0.86;;
68942;SDS011;60852;52.190;4.422;2022-07-06T02:46:54;0.86;;;0.76;;
68942;SDS011;60852;52.190;4.422;2022-07-06T02:49:20;0.80;;;0.72;;
68942;SDS011;60852;52.190;4.422;2022-07-06T02:51:45;0.79;;;0.71;;
68942;SDS011;60852;52.190;4.422;2022-07-06T02:54:10;0.89;;;0.81;;
68942;SDS011;60852;52.190;4.422;2022-07-06T02:56:36;0.93;;;0.86;;
68942;SDS011;60852;52.190;4.422;2022-07-06T02:59:01;0.79;;;0.73;;
68942;SDS011;60852;52.190;4.422;2022-07-06T03:01:27;0.86;;;0.80;;
68942;SDS011;60852;52.190;4.422;2022-07-06T03:03:52;0.83;;;0.77;;
68942;SDS011;60852;52.190;4.422;2022-07-06T03:06:18;0.84;;;0.79;;
68942;SDS011;60852;52.190;4.422;2022-07-06T03:08:43;0.86;;;0.80;;
68942;SDS011;60852;52.190;4.422;2022-07-06T03:11:09;0.83;;;0.77;;
68942;SDS011;60852;52.190;4.422;2022-07-06T03:13:35;1.00;;;0.94;;
68942;SDS011;60852;52.190;4.422;2022-07-06T03:16:00;0.80;;;0.76;;
68942;SDS011;60852;52.190;4.422;2022-07-06T03:18:26;0.82;;;0.77;;
68942;SDS011;60852;52.190;4.422;2022-07-06T03:20:51;0.83;;;0.78;;
68942;SDS011;60852;52.190;4.422;2022-07-06T03:23:17;0.81;;;0.76;;
68942;SDS011;60852;52.190;4.422;2022-07-06T03:25:42;0.74;;;0.70;;
68942;SDS011;60852;52.190;4.422;2022-07-06T03:28:07;0.92;;;0.85;;
68942;SDS011;60852;52.190;4.422;2022-07-06T03:30:33;0.75;;;0.69;;
68942;SDS011;60852;52.190;4.422;2022-07-06T03:32:58;0.82;;;0.75;;
68942;SDS011;60852;52.190;4.422;2022-07-06T03:35:24;0.76;;;0.69;;
68942;SDS011;60852;52.190;4.422;2022-07-06T03:37:49;1.03;;;0.93;;
68942;SDS011;60852;52.190;4.422;2022-07-06T03:40:15;0.72;;;0.65;;
68942;SDS011;60852;52.190;4.422;2022-07-06T03:42:40;0.85;;;0.77;;
68942;SDS011;60852;52.190;4.422;2022-07-06T03:45:06;0.88;;;0.80;;
68942;SDS011;60852;52.190;4.422;2022-07-06T03:47:32;1.04;;;0.94;;
68942;SDS011;60852;52.190;4.422;2022-07-06T03:49:58;1.01;;;0.93;;
68942;SDS011;60852;52.190;4.422;2022-07-06T03:52:24;0.71;;;0.66;;
68942;SDS011;60852;52.190;4.422;2022-07-06T03:54:49;0.96;;;0.89;;
68942;SDS011;60852;52.190;4.422;2022-07-06T03:57:14;0.92;;;0.87;;
68942;SDS011;60852;52.190;4.422;2022-07-06T03:59:40;0.87;;;0.85;;
68942;SDS011;60852;52.190;4.422;2022-07-06T04:02:05;0.70;;;0.70;;
68942;SDS011;60852;52.190;4.422;2022-07-06T04:04:31;0.75;;;0.75;;
68942;SDS011;60852;52.190;4.422;2022-07-06T04:06:58;0.80;;;0.75;;
68942;SDS011;60852;52.190;4.422;2022-07-06T04:09:23;0.81;;;0.74;;
68942;SDS011;60852;52.190;4.422;2022-07-06T04:11:49;0.78;;;0.72;;
68942;SDS011;60852;52.190;4.422;2022-07-06T04:14:14;0.83;;;0.76;;
68942;SDS011;60852;52.190;4.422;2022-07-06T04:16:40;0.90;;;0.81;;
68942;SDS011;60852;52.190;4.422;2022-07-06T04:19:05;0.99;;;0.90;;
68942;SDS011;60852;52.190;4.422;2022-07-06T04:21:30;0.94;;;0.83;;
68942;SDS011;60852;52.190;4.422;2022-07-06T04:23:56;0.99;;;0.88;;
68942;SDS011;60852;52.190;4.422;2022-07-06T04:26:21;1.05;;;0.92;;
68942;SDS011;60852;52.190;4.422;2022-07-06T04:28:47;0.72;;;0.63;;
68942;SDS011;60852;52.190;4.422;2022-07-06T04:31:12;0.90;;;0.78;;
68942;SDS011;60852;52.190;4.422;2022-07-06T04:33:41;0.98;;;0.84;;
68942;SDS011;60852;52.190;4.422;2022-07-06T04:36:08;0.93;;;0.81;;
68942;SDS011;60852;52.190;4.422;2022-07-06T04:38:35;0.90;;;0.79;;
68942;SDS011;60852;52.190;4.422;2022-07-06T04:41:00;1.05;;;0.93;;
68942;SDS011;60852;52.190;4.422;2022-07-06T04:43:26;0.99;;;0.89;;
68942;SDS011;60852;52.190;4.422;2022-07-06T04:45:51;0.97;;;0.86;;
68942;SDS011;60852;52.190;4.422;2022-07-06T04:48:16;1.19;;;1.05;;
68942;SDS011;60852;52.190;4.422;2022-07-06T04:50:42;1.05;;;0.93;;
68942;SDS011;60852;52.190;4.422;2022-07-06T04:53:07;1.48;;;1.32;;
68942;SDS011;60852;52.190;4.422;2022-07-06T04:55:33;1.12;;;1.02;;
68942;SDS011;60852;52.190;4.422;2022-07-06T04:57:58;1.08;;;0.97;;
68942;SDS011;60852;52.190;4.422;2022-07-06T05:00:23;1.25;;;1.10;;
68942;SDS011;60852;52.190;4.422;2022-07-06T05:02:49;1.08;;;0.95;;
68942;SDS011;60852;52.190;4.422;2022-07-06T05:05:15;1.15;;;1.00;;
68942;SDS011;60852;52.190;4.422;2022-07-06T05:07:40;1.04;;;0.90;;
68942;SDS011;60852;52.190;4.422;2022-07-06T05:10:09;1.22;;;1.06;;
68942;SDS011;60852;52.190;4.422;2022-07-06T05:12:36;1.09;;;0.97;;
68942;SDS011;60852;52.190;4.422;2022-07-06T05:15:02;0.97;;;0.88;;
68942;SDS011;60852;52.190;4.422;2022-07-06T05:17:28;0.76;;;0.69;;
68942;SDS011;60852;52.190;4.422;2022-07-06T05:19:54;0.76;;;0.70;;
68942;SDS011;60852;52.190;4.422;2022-07-06T05:22:19;0.73;;;0.67;;
68942;SDS011;60852;52.190;4.422;2022-07-06T05:24:45;1.05;;;0.98;;
68942;SDS011;60852;52.190;4.422;2022-07-06T05:27:11;0.79;;;0.74;;
68942;SDS011;60852;52.190;4.422;2022-07-06T05:29:36;0.93;;;0.86;;
68942;SDS011;60852;52.190;4.422;2022-07-06T05:32:02;0.96;;;0.90;;
68942;SDS011;60852;52.190;4.422;2022-07-06T05:34:28;0.88;;;0.82;;
68942;SDS011;60852;52.190;4.422;2022-07-06T05:36:53;0.81;;;0.75;;
68942;SDS011;60852;52.190;4.422;2022-07-06T05:39:19;0.93;;;0.86;;
68942;SDS011;60852;52.190;4.422;2022-07-06T05:41:46;0.89;;;0.81;;
68942;SDS011;60852;52.190;4.422;2022-07-06T05:44:12;0.95;;;0.87;;
68942;SDS011;60852;52.190;4.422;2022-07-06T05:46:38;0.88;;;0.79;;
68942;SDS011;60852;52.190;4.422;2022-07-06T05:49:03;0.89;;;0.80;;
68942;SDS011;60852;52.190;4.422;2022-07-06T05:51:47;0.79;;;0.73;;
68942;SDS011;60852;52.190;4.422;2022-07-06T05:54:12;0.75;;;0.69;;
68942;SDS011;60852;52.190;4.422;2022-07-06T05:56:38;0.81;;;0.75;;
68942;SDS011;60852;52.190;4.422;2022-07-06T05:59:03;0.73;;;0.67;;
68942;SDS011;60852;52.190;4.422;2022-07-06T06:01:29;0.79;;;0.71;;
68942;SDS011;60852;52.190;4.422;2022-07-06T06:03:54;1.10;;;0.95;;
68942;SDS011;60852;52.190;4.422;2022-07-06T06:06:19;0.75;;;0.64;;
68942;SDS011;60852;52.190;4.422;2022-07-06T06:08:45;0.88;;;0.76;;
68942;SDS011;60852;52.190;4.422;2022-07-06T06:11:10;0.83;;;0.72;;
68942;SDS011;60852;52.190;4.422;2022-07-06T06:13:36;0.68;;;0.59;;
68942;SDS011;60852;52.190;4.422;2022-07-06T06:16:01;0.85;;;0.74;;
68942;SDS011;60852;52.190;4.422;2022-07-06T06:18:26;1.04;;;0.91;;
68942;SDS011;60852;52.190;4.422;2022-07-06T06:20:52;0.91;;;0.81;;
68942;SDS011;60852;52.190;4.422;2022-07-06T06:23:17;0.90;;;0.80;;
68942;SDS011;60852;52.190;4.422;2022-07-06T06:25:43;0.89;;;0.79;;
68942;SDS011;60852;52.190;4.422;2022-07-06T06:28:09;0.97;;;0.87;;
68942;SDS011;60852;52.190;4.422;2022-07-06T06:30:36;1.14;;;1.04;;
68942;SDS011;60852;52.190;4.422;2022-07-06T06:33:10;0.86;;;0.79;;
68942;SDS011;60852;52.190;4.422;2022-07-06T06:35:37;0.75;;;0.69;;
68942;SDS011;60852;52.190;4.422;2022-07-06T06:38:07;1.02;;;0.91;;
68942;SDS011;60852;52.190;4.422;2022-07-06T06:40:32;0.97;;;0.87;;
68942;SDS011;60852;52.190;4.422;2022-07-06T06:42:59;0.85;;;0.77;;
68942;SDS011;60852;52.190;4.422;2022-07-06T06:45:25;0.89;;;0.82;;
68942;SDS011;60852;52.190;4.422;2022-07-06T06:47:50;0.75;;;0.70;;
68942;SDS011;60852;52.190;4.422;2022-07-06T06:50:15;1.06;;;0.97;;
68942;SDS011;60852;52.190;4.422;2022-07-06T06:52:41;1.16;;;1.07;;
68942;SDS011;60852;52.190;4.422;2022-07-06T06:55:06;1.19;;;1.10;;
68942;SDS011;60852;52.190;4.422;2022-07-06T06:57:32;0.91;;;0.84;;
68942;SDS011;60852;52.190;4.422;2022-07-06T06:59:58;0.90;;;0.83;;
68942;SDS011;60852;52.190;4.422;2022-07-06T07:02:23;0.95;;;0.87;;
68942;SDS011;60852;52.190;4.422;2022-07-06T07:04:49;0.83;;;0.77;;
68942;SDS011;60852;52.190;4.422;2022-07-06T07:07:14;0.83;;;0.77;;
68942;SDS011;60852;52.190;4.422;2022-07-06T07:09:40;0.81;;;0.75;;
68942;SDS011;60852;52.190;4.422;2022-07-06T07:12:06;0.89;;;0.83;;
68942;SDS011;60852;52.190;4.422;2022-07-06T07:14:31;0.76;;;0.71;;
68942;SDS011;60852;52.190;4.422;2022-07-06T07:16:57;0.94;;;0.87;;
68942;SDS011;60852;52.190;4.422;2022-07-06T07:19:22;1.04;;;0.97;;
68942;SDS011;60852;52.190;4.422;2022-07-06T07:21:48;0.95;;;0.89;;
68942;SDS011;60852;52.190;4.422;2022-07-06T07:24:13;0.97;;;0.90;;
68942;SDS011;60852;52.190;4.422;2022-07-06T07:26:38;0.78;;;0.72;;
68942;SDS011;60852;52.190;4.422;2022-07-06T07:29:04;0.74;;;0.70;;
68942;SDS011;60852;52.190;4.422;2022-07-06T07:31:29;0.79;;;0.75;;
68942;SDS011;60852;52.190;4.422;2022-07-06T07:33:55;0.75;;;0.72;;
68942;SDS011;60852;52.190;4.422;2022-07-06T07:36:22;0.81;;;0.78;;
68942;SDS011;60852;52.190;4.422;2022-07-06T07:38:49;0.83;;;0.79;;
68942;SDS011;60852;52.190;4.422;2022-07-06T07:41:14;0.65;;;0.62;;
68942;SDS011;60852;52.190;4.422;2022-07-06T07:43:41;0.77;;;0.73;;
68942;SDS011;60852;52.190;4.422;2022-07-06T07:46:07;0.72;;;0.68;;
68942;SDS011;60852;52.190;4.422;2022-07-06T07:48:33;0.96;;;0.92;;
68942;SDS011;60852;52.190;4.422;2022-07-06T07:50:58;0.69;;;0.69;;
68942;SDS011;60852;52.190;4.422;2022-07-06T07:53:24;0.58;;;0.58;;
68942;SDS011;60852;52.190;4.422;2022-07-06T07:55:49;0.72;;;0.72;;
68942;SDS011;60852;52.190;4.422;2022-07-06T07:58:14;0.69;;;0.69;;
68942;SDS011;60852;52.190;4.422;2022-07-06T08:00:40;0.55;;;0.55;;
68942;SDS011;60852;52.190;4.422;2022-07-06T08:03:05;0.67;;;0.67;;
68942;SDS011;60852;52.190;4.422;2022-07-06T08:05:31;0.86;;;0.86;;
68942;SDS011;60852;52.190;4.422;2022-07-06T08:07:56;0.85;;;0.85;;
68942;SDS011;60852;52.190;4.422;2022-07-06T08:10:21;0.66;;;0.65;;
68942;SDS011;60852;52.190;4.422;2022-07-06T08:12:47;0.69;;;0.66;;
68942;SDS011;60852;52.190;4.422;2022-07-06T08:15:12;0.70;;;0.68;;
68942;SDS011;60852;52.190;4.422;2022-07-06T08:17:38;0.57;;;0.57;;
68942;SDS011;60852;52.190;4.422;2022-07-06T08:20:05;0.78;;;0.77;;
68942;SDS011;60852;52.190;4.422;2022-07-06T08:22:31;0.72;;;0.69;;
68942;SDS011;60852;52.190;4.422;2022-07-06T08:24:57;0.68;;;0.65;;
68942;SDS011;60852;52.190;4.422;2022-07-06T08:27:23;0.65;;;0.62;;
68942;SDS011;60852;52.190;4.422;2022-07-06T08:29:49;0.64;;;0.62;;
68942;SDS011;60852;52.190;4.422;2022-07-06T08:32:14;1.05;;;1.00;;
68942;SDS011;60852;52.190;4.422;2022-07-06T08:34:40;0.67;;;0.64;;
68942;SDS011;60852;52.190;4.422;2022-07-06T08:37:05;0.66;;;0.62;;
68942;SDS011;60852;52.190;4.422;2022-07-06T08:39:31;0.92;;;0.88;;
68942;SDS011;60852;52.190;4.422;2022-07-06T08:41:56;0.81;;;0.78;;
68942;SDS011;60852;52.190;4.422;2022-07-06T08:44:25;0.56;;;0.55;;
68942;SDS011;60852;52.190;4.422;2022-07-06T08:46:51;0.74;;;0.73;;
68942;SDS011;60852;52.190;4.422;2022-07-06T08:49:19;0.53;;;0.51;;
68942;SDS011;60852;52.190;4.422;2022-07-06T08:51:46;0.92;;;0.88;;
68942;SDS011;60852;52.190;4.422;2022-07-06T08:54:13;1.01;;;0.95;;
68942;SDS011;60852;52.190;4.422;2022-07-06T08:56:39;0.82;;;0.77;;
68942;SDS011;60852;52.190;4.422;2022-07-06T08:59:05;0.82;;;0.77;;
68942;SDS011;60852;52.190;4.422;2022-07-06T09:01:34;0.63;;;0.60;;
68942;SDS011;60852;52.190;4.422;2022-07-06T09:04:00;0.58;;;0.55;;
68942;SDS011;60852;52.190;4.422;2022-07-06T09:06:30;0.89;;;0.83;;
68942;SDS011;60852;52.190;4.422;2022-07-06T09:08:56;0.85;;;0.79;;
68942;SDS011;60852;52.190;4.422;2022-07-06T09:11:23;0.66;;;0.61;;
68942;SDS011;60852;52.190;4.422;2022-07-06T09:13:50;0.72;;;0.68;;
68942;SDS011;60852;52.190;4.422;2022-07-06T09:16:16;0.70;;;0.66;;
68942;SDS011;60852;52.190;4.422;2022-07-06T09:18:45;0.69;;;0.65;;
68942;SDS011;60852;52.190;4.422;2022-07-06T09:21:12;0.74;;;0.69;;
68942;SDS011;60852;52.190;4.422;2022-07-06T09:23:58;0.69;;;0.64;;
68942;SDS011;60852;52.190;4.422;2022-07-06T09:26:25;0.65;;;0.62;;
68942;SDS011;60852;52.190;4.422;2022-07-06T09:28:51;0.67;;;0.63;;
68942;SDS011;60852;52.190;4.422;2022-07-06T09:31:20;0.63;;;0.60;;
68942;SDS011;60852;52.190;4.422;2022-07-06T09:36:38;0.72;;;0.72;;
68942;SDS011;60852;52.190;4.422;2022-07-06T09:39:26;0.67;;;0.67;;
68942;SDS011;60852;52.190;4.422;2022-07-06T09:41:54;0.70;;;0.70;;
68942;SDS011;60852;52.190;4.422;2022-07-06T09:46:55;0.62;;;0.61;;
68942;SDS011;60852;52.190;4.422;2022-07-06T09:49:22;0.76;;;0.72;;
68942;SDS011;60852;52.190;4.422;2022-07-06T09:51:50;0.61;;;0.57;;
68942;SDS011;60852;52.190;4.422;2022-07-06T09:54:17;0.80;;;0.74;;
68942;SDS011;60852;52.190;4.422;2022-07-06T09:56:44;0.68;;;0.62;;
68942;SDS011;60852;52.190;4.422;2022-07-06T09:59:16;0.93;;;0.85;;
68942;SDS011;60852;52.190;4.422;2022-07-06T10:01:44;0.60;;;0.55;;
68942;SDS011;60852;52.190;4.422;2022-07-06T10:04:10;0.57;;;0.51;;
68942;SDS011;60852;52.190;4.422;2022-07-06T10:06:43;0.58;;;0.53;;
68942;SDS011;60852;52.190;4.422;2022-07-06T10:09:10;0.51;;;0.46;;
68942;SDS011;60852;52.190;4.422;2022-07-06T10:11:37;0.68;;;0.63;;
68942;SDS011;60852;52.190;4.422;2022-07-06T10:14:12;0.67;;;0.62;;
68942;SDS011;60852;52.190;4.422;2022-07-06T10:16:42;0.67;;;0.62;;
68942;SDS011;60852;52.190;4.422;2022-07-06T10:19:08;0.67;;;0.62;;
68942;SDS011;60852;52.190;4.422;2022-07-06T10:21:38;0.59;;;0.55;;
68942;SDS011;60852;52.190;4.422;2022-07-06T10:24:05;0.82;;;0.76;;
68942;SDS011;60852;52.190;4.422;2022-07-06T10:26:35;0.73;;;0.68;;
68942;SDS011;60852;52.190;4.422;2022-07-06T10:29:01;0.49;;;0.46;;
68942;SDS011;60852;52.190;4.422;2022-07-06T10:31:29;0.57;;;0.53;;
68942;SDS011;60852;52.190;4.422;2022-07-06T10:33:57;0.54;;;0.50;;
68942;SDS011;60852;52.190;4.422;2022-07-06T10:36:24;0.60;;;0.55;;
68942;SDS011;60852;52.190;4.422;2022-07-06T10:38:50;0.68;;;0.63;;
68942;SDS011;60852;52.190;4.422;2022-07-06T10:41:17;0.59;;;0.55;;
68942;SDS011;60852;52.190;4.422;2022-07-06T10:43:45;0.65;;;0.61;;
68942;SDS011;60852;52.190;4.422;2022-07-06T10:46:12;0.63;;;0.58;;
68942;SDS011;60852;52.190;4.422;2022-07-06T10:48:41;0.61;;;0.57;;
68942;SDS011;60852;52.190;4.422;2022-07-06T10:51:08;0.59;;;0.55;;
68942;SDS011;60852;52.190;4.422;2022-07-06T10:53:37;0.69;;;0.64;;
68942;SDS011;60852;52.190;4.422;2022-07-06T10:56:08;0.61;;;0.57;;
68942;SDS011;60852;52.190;4.422;2022-07-06T10:58:41;0.75;;;0.72;;
68942;SDS011;60852;52.190;4.422;2022-07-06T11:01:19;0.72;;;0.71;;
68942;SDS011;60852;52.190;4.422;2022-07-06T11:03:49;0.91;;;0.88;;
68942;SDS011;60852;52.190;4.422;2022-07-06T11:06:34;0.73;;;0.69;;
68942;SDS011;60852;52.190;4.422;2022-07-06T11:09:06;0.83;;;0.81;;
68942;SDS011;60852;52.190;4.422;2022-07-06T11:14:00;0.81;;;0.81;;
68942;SDS011;60852;52.190;4.422;2022-07-06T11:16:32;0.62;;;0.61;;
68942;SDS011;60852;52.190;4.422;2022-07-06T11:19:06;0.82;;;0.81;;
68942;SDS011;60852;52.190;4.422;2022-07-06T11:24:08;0.94;;;0.93;;
68942;SDS011;60852;52.190;4.422;2022-07-06T11:26:36;0.87;;;0.87;;
68942;SDS011;60852;52.190;4.422;2022-07-06T11:29:06;0.71;;;0.71;;
68942;SDS011;60852;52.190;4.422;2022-07-06T11:31:36;0.75;;;0.75;;
68942;SDS011;60852;52.190;4.422;2022-07-06T11:34:04;0.75;;;0.75;;
68942;SDS011;60852;52.190;4.422;2022-07-06T11:36:31;0.78;;;0.78;;
68942;SDS011;60852;52.190;4.422;2022-07-06T11:38:57;0.71;;;0.68;;
68942;SDS011;60852;52.190;4.422;2022-07-06T11:41:23;0.83;;;0.78;;
68942;SDS011;60852;52.190;4.422;2022-07-06T11:43:49;0.88;;;0.82;;
68942;SDS011;60852;52.190;4.422;2022-07-06T11:48:52;0.73;;;0.68;;
68942;SDS011;60852;52.190;4.422;2022-07-06T11:51:22;1.02;;;0.95;;
68942;SDS011;60852;52.190;4.422;2022-07-06T11:53:50;0.94;;;0.89;;
68942;SDS011;60852;52.190;4.422;2022-07-06T11:56:18;0.95;;;0.90;;
68942;SDS011;60852;52.190;4.422;2022-07-06T11:58:45;1.09;;;1.04;;
68942;SDS011;60852;52.190;4.422;2022-07-06T12:01:12;1.04;;;0.99;;
68942;SDS011;60852;52.190;4.422;2022-07-06T12:03:39;1.13;;;1.06;;
68942;SDS011;60852;52.190;4.422;2022-07-06T12:06:05;1.21;;;1.14;;
68942;SDS011;60852;52.190;4.422;2022-07-06T12:08:44;1.20;;;1.12;;
68942;SDS011;60852;52.190;4.422;2022-07-06T12:11:16;1.39;;;1.31;;
68942;SDS011;60852;52.190;4.422;2022-07-06T12:13:44;1.26;;;1.19;;
68942;SDS011;60852;52.190;4.422;2022-07-06T12:16:13;1.34;;;1.31;;
68942;SDS011;60852;52.190;4.422;2022-07-06T12:18:41;1.40;;;1.38;;
68942;SDS011;60852;52.190;4.422;2022-07-06T12:21:08;1.51;;;1.51;;
68942;SDS011;60852;52.190;4.422;2022-07-06T12:23:42;1.40;;;1.40;;
68942;SDS011;60852;52.190;4.422;2022-07-06T12:26:11;1.57;;;1.57;;
68942;SDS011;60852;52.190;4.422;2022-07-06T12:28:38;1.72;;;1.72;;
68942;SDS011;60852;52.190;4.422;2022-07-06T12:31:04;1.91;;;1.91;;
68942;SDS011;60852;52.190;4.422;2022-07-06T12:33:29;2.06;;;2.06;;
68942;SDS011;60852;52.190;4.422;2022-07-06T12:35:55;1.85;;;1.85;;
68942;SDS011;60852;52.190;4.422;2022-07-06T12:38:27;1.77;;;1.77;;
68942;SDS011;60852;52.190;4.422;2022-07-06T12:40:54;1.75;;;1.75;;
68942;SDS011;60852;52.190;4.422;2022-07-06T12:43:39;1.87;;;1.87;;
68942;SDS011;60852;52.190;4.422;2022-07-06T12:48:58;2.26;;;2.26;;
68942;SDS011;60852;52.190;4.422;2022-07-06T12:51:25;2.76;;;2.76;;
68942;SDS011;60852;52.190;4.422;2022-07-06T12:53:51;2.71;;;2.71;;
68942;SDS011;60852;52.190;4.422;2022-07-06T12:56:17;2.60;;;2.60;;
68942;SDS011;60852;52.190;4.422;2022-07-06T12:58:56;2.88;;;2.88;;
68942;SDS011;60852;52.190;4.422;2022-07-06T13:01:24;3.02;;;3.02;;
68942;SDS011;60852;52.190;4.422;2022-07-06T13:03:54;2.91;;;2.91;;
68942;SDS011;60852;52.190;4.422;2022-07-06T13:06:28;3.19;;;3.19;;
68942;SDS011;60852;52.190;4.422;2022-07-06T13:09:03;3.54;;;3.54;;
68942;SDS011;60852;52.190;4.422;2022-07-06T13:11:28;4.25;;;4.25;;
68942;SDS011;60852;52.190;4.422;2022-07-06T13:13:54;4.31;;;4.31;;
68942;SDS011;60852;52.190;4.422;2022-07-06T13:16:19;4.62;;;4.62;;
68942;SDS011;60852;52.190;4.422;2022-07-06T13:18:47;4.80;;;4.80;;
68942;SDS011;60852;52.190;4.422;2022-07-06T13:21:12;5.19;;;5.19;;
68942;SDS011;60852;52.190;4.422;2022-07-06T13:23:38;5.07;;;5.07;;
68942;SDS011;60852;52.190;4.422;2022-07-06T13:26:04;5.72;;;5.72;;
68942;SDS011;60852;52.190;4.422;2022-07-06T13:28:30;6.15;;;6.15;;
68942;SDS011;60852;52.190;4.422;2022-07-06T13:30:55;6.81;;;6.81;;
68942;SDS011;60852;52.190;4.422;2022-07-06T13:33:20;8.40;;;8.40;;
68942;SDS011;60852;52.190;4.422;2022-07-06T13:35:46;9.16;;;9.16;;
68942;SDS011;60852;52.190;4.422;2022-07-06T13:38:11;9.84;;;9.84;;
68942;SDS011;60852;52.190;4.422;2022-07-06T13:40:36;12.17;;;12.17;;
68942;SDS011;60852;52.190;4.422;2022-07-06T13:43:02;12.28;;;12.28;;
68942;SDS011;60852;52.190;4.422;2022-07-06T13:45:28;12.43;;;12.43;;
68942;SDS011;60852;52.190;4.422;2022-07-06T13:47:54;13.65;;;13.65;;
68942;SDS011;60852;52.190;4.422;2022-07-06T13:50:19;14.36;;;14.35;;
68942;SDS011;60852;52.190;4.422;2022-07-06T13:52:45;14.44;;;14.44;;
68942;SDS011;60852;52.190;4.422;2022-07-06T13:55:10;15.17;;;15.17;;
68942;SDS011;60852;52.190;4.422;2022-07-06T13:57:36;14.19;;;14.18;;
68942;SDS011;60852;52.190;4.422;2022-07-06T14:00:03;14.05;;;14.05;;
68942;SDS011;60852;52.190;4.422;2022-07-06T14:02:29;14.19;;;14.19;;
68942;SDS011;60852;52.190;4.422;2022-07-06T14:04:54;15.04;;;15.04;;
68942;SDS011;60852;52.190;4.422;2022-07-06T14:07:20;13.89;;;13.89;;
68942;SDS011;60852;52.190;4.422;2022-07-06T14:09:45;13.41;;;13.41;;
68942;SDS011;60852;52.190;4.422;2022-07-06T14:12:11;13.79;;;13.79;;
68942;SDS011;60852;52.190;4.422;2022-07-06T14:14:37;14.41;;;14.41;;
68942;SDS011;60852;52.190;4.422;2022-07-06T14:17:03;14.83;;;14.59;;
68942;SDS011;60852;52.190;4.422;2022-07-06T14:19:29;11.54;;;11.47;;
68942;SDS011;60852;52.190;4.422;2022-07-06T14:21:54;11.49;;;11.49;;
68942;SDS011;60852;52.190;4.422;2022-07-06T14:24:20;9.97;;;9.97;;
68942;SDS011;60852;52.190;4.422;2022-07-06T14:26:45;8.53;;;8.53;;
68942;SDS011;60852;52.190;4.422;2022-07-06T14:29:11;7.85;;;7.85;;
68942;SDS011;60852;52.190;4.422;2022-07-06T14:31:36;6.88;;;6.88;;
68942;SDS011;60852;52.190;4.422;2022-07-06T14:34:01;6.09;;;6.09;;
68942;SDS011;60852;52.190;4.422;2022-07-06T14:36:27;5.70;;;5.70;;
68942;SDS011;60852;52.190;4.422;2022-07-06T14:38:52;5.57;;;5.57;;
68942;SDS011;60852;52.190;4.422;2022-07-06T14:41:18;4.78;;;4.78;;
68942;SDS011;60852;52.190;4.422;2022-07-06T14:43:43;5.00;;;5.00;;
68942;SDS011;60852;52.190;4.422;2022-07-06T14:46:09;4.44;;;4.44;;
68942;SDS011;60852;52.190;4.422;2022-07-06T14:48:34;3.77;;;3.77;;
68942;SDS011;60852;52.190;4.422;2022-07-06T14:51:00;3.53;;;3.53;;
68942;SDS011;60852;52.190;4.422;2022-07-06T14:53:25;3.50;;;3.50;;
68942;SDS011;60852;52.190;4.422;2022-07-06T14:55:51;3.66;;;3.66;;
68942;SDS011;60852;52.190;4.422;2022-07-06T14:58:17;3.64;;;3.64;;